Time;durP1;ratioP1;P1;durP2;ratioP2;P2;SDS_P1;SDS_P2;PMS_P1;PMS_P2;Temp;Humidity;BMP_temperature;BMP_pressure;BME280_temperature;BME280_humidity;BME280_pressure;Samples;Min_cycle;Max_cycle;Signal;HPM_P1;HPM_P2
2022/06/25 00:01:13;;;;;;;4.43;3.53;;;16.50;99.90;;;;;;5088163;28;20119;-64
2022/06/25 00:03:40;;;;;;;6.57;3.33;;;16.60;99.90;;;;;;5074047;28;20039;-64
2022/06/25 00:06:06;;;;;;;7.15;3.35;;;16.60;99.90;;;;;;5068118;28;20082;-65
2022/06/25 00:08:34;;;;;;;6.18;3.00;;;16.60;99.90;;;;;;5083722;28;20032;-64
2022/06/25 00:10:59;;;;;;;7.82;3.03;;;16.50;99.90;;;;;;5086009;28;20035;-65
2022/06/25 00:13:25;;;;;;;4.13;3.03;;;16.50;99.90;;;;;;5088589;28;20043;-64
2022/06/25 00:15:51;;;;;;;4.55;2.88;;;16.50;99.90;;;;;;5090006;28;20035;-64
2022/06/25 00:18:17;;;;;;;5.75;3.17;;;16.60;99.90;;;;;;5085731;28;20028;-65
2022/06/25 00:20:44;;;;;;;10.15;4.20;;;16.60;99.90;;;;;;5087247;28;20039;-64
2022/06/25 00:23:10;;;;;;;9.15;3.60;;;16.50;99.90;;;;;;5074957;28;20036;-64
2022/06/25 00:25:36;;;;;;;8.40;4.10;;;16.60;99.90;;;;;;5068514;28;20393;-64
2022/06/25 00:28:02;;;;;;;5.28;3.63;;;16.60;99.90;;;;;;5082758;28;20032;-64
2022/06/25 00:30:28;;;;;;;8.38;4.15;;;16.50;99.90;;;;;;5088629;28;20541;-64
2022/06/25 00:32:54;;;;;;;13.90;4.25;;;16.50;99.90;;;;;;5086105;28;20023;-64
2022/06/25 00:35:20;;;;;;;7.72;3.67;;;16.50;99.90;;;;;;5087964;28;20104;-64
2022/06/25 00:37:46;;;;;;;6.00;3.63;;;16.40;99.90;;;;;;5085634;28;20030;-64
2022/06/25 00:40:12;;;;;;;9.10;3.63;;;16.40;99.90;;;;;;5082265;28;20028;-64
2022/06/25 00:42:45;;;;;;;11.27;3.83;;;16.40;99.90;;;;;;5070272;28;20165;-64
2022/06/25 00:45:11;;;;;;;4.65;3.50;;;16.50;99.90;;;;;;5095281;28;20448;-64
2022/06/25 00:47:37;;;;;;;10.48;3.50;;;16.50;99.90;;;;;;5094413;28;20267;-64
2022/06/25 00:50:04;;;;;;;6.28;3.70;;;16.50;99.90;;;;;;5094746;28;20488;-65
2022/06/25 00:52:33;;;;;;;6.38;3.60;;;16.40;99.90;;;;;;5084017;28;20040;-64
2022/06/25 00:55:06;;;;;;;6.07;3.60;;;16.40;99.90;;;;;;5074883;28;20490;-64
2022/06/25 00:57:34;;;;;;;4.93;3.58;;;16.30;99.90;;;;;;5074871;28;20040;-64
2022/06/25 01:00:12;;;;;;;5.30;3.47;;;16.30;99.90;;;;;;5093906;28;20135;-64
2022/06/25 01:02:39;;;;;;;7.68;3.47;;;16.30;99.90;;;;;;5074870;28;20040;-64
2022/06/25 01:05:11;;;;;;;6.40;3.35;;;16.20;99.90;;;;;;5091656;28;20036;-64
2022/06/25 01:07:38;;;;;;;5.75;3.58;;;16.20;99.90;;;;;;5089870;28;20070;-64
2022/06/25 01:10:06;;;;;;;5.30;3.50;;;16.20;99.90;;;;;;5094199;28;20032;-65
2022/06/25 01:12:32;;;;;;;10.93;3.72;;;16.20;99.90;;;;;;5089599;28;20472;-64
2022/06/25 01:15:09;;;;;;;9.60;3.75;;;16.30;99.90;;;;;;5074970;28;20483;-64
2022/06/25 01:17:40;;;;;;;6.45;3.58;;;16.30;99.90;;;;;;5084512;28;20141;-64
2022/06/25 01:20:06;;;;;;;9.88;3.65;;;16.20;99.90;;;;;;5078533;28;20039;-64
2022/06/25 01:22:32;;;;;;;4.80;3.42;;;16.20;99.90;;;;;;5095097;28;20059;-64
2022/06/25 01:24:58;;;;;;;8.82;3.40;;;16.10;99.90;;;;;;5079750;28;20063;-64
2022/06/25 01:27:23;;;;;;;12.25;3.90;;;16.10;99.90;;;;;;5092981;28;20028;-64
2022/06/25 01:29:49;;;;;;;7.32;3.05;;;16.00;99.90;;;;;;5075035;28;20063;-65
2022/06/25 01:32:15;;;;;;;7.40;3.65;;;16.00;99.90;;;;;;5074619;28;20032;-64
2022/06/25 01:34:40;;;;;;;7.40;3.30;;;16.00;99.90;;;;;;5074085;28;20028;-64
2022/06/25 01:37:06;;;;;;;10.63;3.60;;;16.00;99.90;;;;;;5093583;28;20039;-64
2022/06/25 01:39:32;;;;;;;5.35;2.92;;;15.90;99.90;;;;;;5085991;28;20032;-64
2022/06/25 01:41:58;;;;;;;8.70;3.72;;;15.90;99.90;;;;;;5074565;28;20056;-65
2022/06/25 01:44:23;;;;;;;6.90;3.75;;;15.90;99.90;;;;;;5087167;28;20325;-64
2022/06/25 01:46:49;;;;;;;9.32;3.67;;;15.90;99.90;;;;;;5094904;28;20082;-64
2022/06/25 01:49:15;;;;;;;8.57;3.75;;;15.80;99.90;;;;;;5093218;28;20032;-64
2022/06/25 01:51:41;;;;;;;7.25;3.53;;;15.80;99.90;;;;;;5093977;28;20031;-64
2022/06/25 01:54:07;;;;;;;6.90;3.75;;;15.80;99.90;;;;;;5088059;28;20024;-65
2022/06/25 01:56:33;;;;;;;8.50;3.58;;;15.80;99.90;;;;;;5081076;28;20532;-64
2022/06/25 01:58:58;;;;;;;7.25;3.38;;;15.70;99.90;;;;;;5091579;28;20036;-64
2022/06/25 02:01:24;;;;;;;10.35;3.60;;;15.70;99.90;;;;;;5092839;28;20047;-64
2022/06/25 02:03:50;;;;;;;5.43;3.28;;;15.70;99.90;;;;;;5082627;28;20048;-64
2022/06/25 02:06:16;;;;;;;8.02;3.40;;;15.70;99.90;;;;;;5068997;28;20040;-64
2022/06/25 02:08:42;;;;;;;6.88;3.53;;;15.70;99.90;;;;;;5087651;28;20039;-64
2022/06/25 02:11:09;;;;;;;7.85;3.50;;;15.70;99.90;;;;;;5090528;28;20531;-64
2022/06/25 02:13:35;;;;;;;8.77;3.20;;;15.70;99.90;;;;;;5093560;28;20582;-64
2022/06/25 02:16:02;;;;;;;8.38;3.85;;;15.60;99.90;;;;;;5091319;28;20028;-64
2022/06/25 02:18:28;;;;;;;8.48;3.30;;;15.60;99.90;;;;;;5089656;28;20085;-64
2022/06/25 02:20:54;;;;;;;6.50;3.40;;;15.50;99.90;;;;;;5090317;28;20118;-64
2022/06/25 02:23:21;;;;;;;5.28;3.30;;;15.60;99.90;;;;;;5088580;28;20036;-64
2022/06/25 02:25:47;;;;;;;5.45;3.55;;;15.60;99.90;;;;;;5091101;28;20024;-63
2022/06/25 02:28:14;;;;;;;7.68;4.30;;;15.60;99.90;;;;;;5071672;28;20481;-64
2022/06/25 02:30:40;;;;;;;5.78;3.33;;;15.50;99.90;;;;;;5086829;28;20237;-64
2022/06/25 02:33:11;;;;;;;6.15;3.17;;;15.50;99.90;;;;;;5089487;28;20671;-64
2022/06/25 02:35:38;;;;;;;10.20;3.25;;;15.50;99.90;;;;;;5082715;28;20393;-64
2022/06/25 02:38:04;;;;;;;10.10;3.95;;;15.40;99.90;;;;;;5086604;28;20029;-64
2022/06/25 02:40:29;;;;;;;9.35;3.28;;;15.40;99.90;;;;;;5082644;28;20044;-64
2022/06/25 02:42:55;;;;;;;13.65;3.90;;;15.30;99.90;;;;;;5070510;28;20034;-64
2022/06/25 02:45:21;;;;;;;9.70;4.07;;;15.20;99.90;;;;;;5077441;28;20032;-64
2022/06/25 02:47:47;;;;;;;11.63;3.40;;;15.20;99.90;;;;;;5090005;28;20479;-64
2022/06/25 02:50:12;;;;;;;7.70;3.60;;;15.20;99.90;;;;;;5088758;28;20039;-64
2022/06/25 02:52:38;;;;;;;9.13;3.63;;;15.20;99.90;;;;;;5088237;28;20036;-64
2022/06/25 02:55:04;;;;;;;5.03;3.25;;;15.10;99.90;;;;;;5090222;28;20039;-64
2022/06/25 03:00:14;;;;;;;4.88;3.38;;;15.10;99.90;;;;;;5075378;28;20047;-64
2022/06/25 03:02:41;;;;;;;7.28;3.70;;;15.10;99.90;;;;;;5089495;28;20044;-63
2022/06/25 03:05:07;;;;;;;6.82;3.80;;;15.10;99.90;;;;;;5087890;28;20500;-65
2022/06/25 03:07:32;;;;;;;5.10;3.35;;;15.10;99.90;;;;;;5070764;28;20056;-64
2022/06/25 03:09:58;;;;;;;7.00;3.45;;;15.00;99.90;;;;;;5079777;28;20532;-64
2022/06/25 03:12:24;;;;;;;5.72;3.80;;;15.00;99.90;;;;;;5082960;28;20028;-64
2022/06/25 03:14:49;;;;;;;8.02;3.40;;;15.00;99.90;;;;;;5088990;28;20035;-64
2022/06/25 03:17:15;;;;;;;6.63;3.45;;;14.90;99.90;;;;;;5074759;28;20055;-64
2022/06/25 03:19:40;;;;;;;7.63;3.90;;;14.90;99.90;;;;;;5086549;28;20039;-64
2022/06/25 03:22:06;;;;;;;7.20;3.42;;;15.00;99.90;;;;;;5069372;28;20093;-64
2022/06/25 03:24:32;;;;;;;6.88;3.33;;;15.00;99.90;;;;;;5083730;28;20024;-64
2022/06/25 03:26:57;;;;;;;7.70;3.80;;;15.00;99.90;;;;;;5089822;28;20125;-63
2022/06/25 03:29:23;;;;;;;8.10;3.97;;;15.10;99.90;;;;;;5087085;28;20044;-64
2022/06/25 03:31:49;;;;;;;8.55;3.40;;;15.10;99.90;;;;;;5089605;28;20063;-64
2022/06/25 03:34:14;;;;;;;5.60;3.30;;;15.10;99.90;;;;;;5088570;28;20425;-64
2022/06/25 03:36:40;;;;;;;12.63;3.17;;;15.10;99.90;;;;;;5088725;28;20716;-64
2022/06/25 03:39:06;;;;;;;6.28;3.40;;;15.10;99.90;;;;;;5091042;28;20047;-63
2022/06/25 03:41:37;;;;;;;8.95;3.55;;;15.10;99.90;;;;;;5090216;28;20070;-64
2022/06/25 03:44:08;;;;;;;6.35;3.30;;;15.10;99.90;;;;;;5079983;28;20043;-64
2022/06/25 03:46:36;;;;;;;6.78;3.80;;;15.10;99.90;;;;;;5089085;28;20085;-64
2022/06/25 03:49:02;;;;;;;6.88;3.28;;;15.10;99.90;;;;;;5084309;28;20027;-64
2022/06/25 03:51:28;;;;;;;6.75;3.45;;;15.10;99.90;;;;;;5068737;28;20044;-64
2022/06/25 03:53:54;;;;;;;6.53;3.17;;;15.00;99.90;;;;;;5084847;28;20122;-64
2022/06/25 03:56:21;;;;;;;9.10;2.92;;;15.00;99.90;;;;;;5087638;28;20039;-64
2022/06/25 03:58:47;;;;;;;10.95;3.20;;;15.10;99.90;;;;;;5079018;28;20039;-64
2022/06/25 04:01:13;;;;;;;7.07;3.67;;;15.10;99.90;;;;;;5075477;28;20043;-64
2022/06/25 04:03:40;;;;;;;5.72;3.13;;;15.10;99.90;;;;;;5069010;28;20033;-64
2022/06/25 04:06:06;;;;;;;5.68;3.03;;;15.10;99.90;;;;;;5070960;28;20079;-63
2022/06/25 04:08:32;;;;;;;9.18;3.55;;;15.10;99.90;;;;;;5068502;28;20032;-64
2022/06/25 04:10:58;;;;;;;7.43;3.45;;;15.20;99.90;;;;;;5072495;28;20203;-64
2022/06/25 04:13:24;;;;;;;6.32;3.58;;;15.20;99.90;;;;;;5084232;28;20032;-64
2022/06/25 04:15:50;;;;;;;7.75;3.28;;;15.20;99.90;;;;;;5081953;28;20032;-64
2022/06/25 04:18:15;;;;;;;14.55;3.70;;;15.30;99.90;;;;;;5085506;28;20032;-64
2022/06/25 04:20:41;;;;;;;7.20;3.60;;;15.30;99.90;;;;;;5077101;28;20124;-64
2022/06/25 04:23:07;;;;;;;7.75;3.30;;;15.30;99.90;;;;;;5083532;28;20500;-64
2022/06/25 04:25:33;;;;;;;8.60;3.38;;;15.30;99.90;;;;;;5088682;28;20494;-64
2022/06/25 04:30:43;;;;;;;7.75;3.00;;;15.40;99.90;;;;;;5086255;28;20420;-64
2022/06/25 04:33:08;;;;;;;6.50;3.40;;;15.40;99.90;;;;;;5088883;28;20036;-64
2022/06/25 04:35:34;;;;;;;4.95;3.13;;;15.50;99.90;;;;;;5087884;28;20070;-64
2022/06/25 04:38:00;;;;;;;6.22;2.97;;;15.70;99.90;;;;;;5088739;28;20024;-64
2022/06/25 04:40:28;;;;;;;8.63;3.03;;;15.80;99.90;;;;;;5087875;28;20106;-63
2022/06/25 04:42:53;;;;;;;6.22;2.78;;;15.90;99.90;;;;;;5088847;28;20422;-64
2022/06/25 04:45:19;;;;;;;6.22;2.40;;;16.10;99.90;;;;;;5086720;28;20119;-64
2022/06/25 04:47:45;;;;;;;3.20;2.47;;;16.20;99.90;;;;;;5087302;28;20165;-64
2022/06/25 04:50:11;;;;;;;6.95;2.63;;;16.30;99.90;;;;;;5088638;28;20032;-64
2022/06/25 04:52:36;;;;;;;4.43;2.60;;;16.40;99.90;;;;;;5088094;28;20028;-64
2022/06/25 04:55:02;;;;;;;4.82;2.17;;;16.40;99.90;;;;;;5070517;28;20111;-64
2022/06/25 04:57:28;;;;;;;3.72;2.80;;;16.40;99.90;;;;;;5087672;28;20035;-64
2022/06/25 04:59:54;;;;;;;5.38;2.78;;;16.50;99.90;;;;;;5087173;28;20040;-64
2022/06/25 05:02:19;;;;;;;3.45;2.28;;;16.60;99.90;;;;;;5087587;28;20122;-64
2022/06/25 05:04:45;;;;;;;6.13;2.22;;;16.60;99.90;;;;;;5088437;28;20035;-64
2022/06/25 05:07:11;;;;;;;15.20;3.88;;;16.60;99.90;;;;;;5088388;28;20475;-63
2022/06/25 05:09:36;;;;;;;6.25;2.33;;;16.70;99.90;;;;;;5087773;28;20491;-63
2022/06/25 05:12:02;;;;;;;5.25;2.70;;;16.80;99.90;;;;;;5088184;28;20035;-64
2022/06/25 05:14:28;;;;;;;3.22;2.30;;;17.00;99.90;;;;;;5085375;28;20032;-64
2022/06/25 05:16:54;;;;;;;6.45;2.67;;;17.00;99.90;;;;;;5087471;28;20392;-64
2022/06/25 05:19:20;;;;;;;5.28;2.28;;;17.00;99.90;;;;;;5083542;28;20370;-64
2022/06/25 05:21:46;;;;;;;3.85;2.35;;;17.00;99.90;;;;;;5087091;28;20036;-63
2022/06/25 05:24:12;;;;;;;4.57;2.08;;;17.10;99.90;;;;;;5086917;28;20055;-63
2022/06/25 05:26:37;;;;;;;3.55;2.42;;;17.20;99.90;;;;;;5086829;28;20392;-63
2022/06/25 05:29:03;;;;;;;6.07;2.50;;;17.30;99.90;;;;;;5085018;28;20056;-64
2022/06/25 05:31:29;;;;;;;4.13;2.60;;;17.40;99.90;;;;;;5089265;28;20119;-64
2022/06/25 05:33:55;;;;;;;5.53;2.38;;;17.50;99.90;;;;;;5090903;28;20028;-64
2022/06/25 05:36:21;;;;;;;2.95;1.98;;;17.50;99.90;;;;;;5088411;28;20472;-64
2022/06/25 05:38:46;;;;;;;6.32;2.20;;;17.60;99.90;;;;;;5092094;28;20030;-64
2022/06/25 05:41:12;;;;;;;3.38;2.00;;;17.70;99.90;;;;;;5091947;28;20455;-63
2022/06/25 05:43:39;;;;;;;5.32;2.50;;;17.70;99.90;;;;;;5091515;28;20032;-64
2022/06/25 05:46:05;;;;;;;2.25;1.92;;;17.80;99.90;;;;;;5091881;28;20028;-63
2022/06/25 05:48:31;;;;;;;6.63;2.20;;;17.80;99.90;;;;;;5090953;28;20526;-63
2022/06/25 05:50:57;;;;;;;10.63;2.38;;;17.90;99.90;;;;;;5089397;28;20083;-63
2022/06/25 05:53:27;;;;;;;2.50;2.08;;;17.90;99.90;;;;;;5090982;28;20028;-63
2022/06/25 05:55:53;;;;;;;2.80;1.70;;;17.90;99.90;;;;;;5091735;28;20055;-63
2022/06/25 05:58:19;;;;;;;6.53;2.10;;;17.90;99.90;;;;;;5091048;28;20306;-64
2022/06/25 06:00:46;;;;;;;2.42;1.60;;;17.90;99.90;;;;;;5090170;28;20043;-63
2022/06/25 06:03:12;;;;;;;2.90;1.70;;;17.90;99.90;;;;;;5091717;28;20085;-63
2022/06/25 06:05:40;;;;;;;1.75;1.50;;;18.00;99.90;;;;;;5087868;28;20169;-64
2022/06/25 06:08:06;;;;;;;6.18;2.38;;;18.10;99.90;;;;;;5091230;28;20700;-63
2022/06/25 06:10:33;;;;;;;3.50;1.80;;;18.10;99.90;;;;;;5088822;28;21090;-63
2022/06/25 06:12:58;;;;;;;4.90;1.92;;;18.20;99.90;;;;;;5091004;28;20020;-64
2022/06/25 06:15:24;;;;;;;2.75;2.00;;;18.20;99.90;;;;;;5090579;28;20031;-63
2022/06/25 06:17:49;;;;;;;5.50;1.90;;;18.20;99.90;;;;;;5095142;28;20456;-63
2022/06/25 06:20:15;;;;;;;4.55;1.65;;;18.30;99.90;;;;;;5088861;28;20036;-63
2022/06/25 06:22:41;;;;;;;1.90;1.40;;;18.30;99.90;;;;;;5088957;28;20381;-63
2022/06/25 06:25:07;;;;;;;3.28;1.52;;;18.40;99.90;;;;;;5079626;28;20461;-64
2022/06/25 06:27:32;;;;;;;5.63;1.83;;;18.50;99.90;;;;;;5092195;28;20131;-63
2022/06/25 06:29:58;;;;;;;3.00;1.35;;;18.50;99.90;;;;;;5090661;28;20543;-63
2022/06/25 06:32:25;;;;;;;3.83;1.40;;;18.50;99.90;;;;;;5088025;28;20109;-64
2022/06/25 06:34:51;;;;;;;3.53;1.42;;;18.50;99.90;;;;;;5089560;28;20059;-64
2022/06/25 06:37:17;;;;;;;1.90;1.42;;;18.60;99.90;;;;;;5083715;28;20089;-64
2022/06/25 06:39:43;;;;;;;2.28;1.70;;;18.70;99.90;;;;;;5082337;28;20032;-64
2022/06/25 06:42:08;;;;;;;5.28;1.70;;;18.90;99.90;;;;;;5088727;28;20031;-64
2022/06/25 06:44:34;;;;;;;4.00;1.45;;;19.00;99.90;;;;;;5080559;28;20036;-64
2022/06/25 06:47:00;;;;;;;4.30;1.58;;;18.90;99.90;;;;;;5089241;28;20421;-64
2022/06/25 06:49:26;;;;;;;3.20;1.45;;;18.70;99.90;;;;;;5089947;28;20093;-64
2022/06/25 06:51:52;;;;;;;5.80;2.33;;;18.70;99.90;;;;;;5085779;28;20530;-64
2022/06/25 06:54:18;;;;;;;3.10;1.83;;;18.80;99.90;;;;;;5072614;28;20028;-64
2022/06/25 06:56:43;;;;;;;3.00;1.80;;;19.00;99.90;;;;;;5075832;28;20032;-64
2022/06/25 06:59:09;;;;;;;5.97;2.00;;;19.20;99.90;;;;;;5085895;28;20032;-65
2022/06/25 07:01:35;;;;;;;3.08;1.52;;;19.30;99.90;;;;;;5088403;28;20044;-64
2022/06/25 07:04:00;;;;;;;2.42;2.00;;;19.20;99.90;;;;;;5090069;28;20059;-64
2022/06/25 07:06:26;;;;;;;2.03;1.55;;;19.20;99.90;;;;;;5081560;28;20512;-64
2022/06/25 07:08:52;;;;;;;2.38;1.85;;;19.30;99.90;;;;;;5070114;28;20454;-65
2022/06/25 07:11:30;;;;;;;4.07;2.10;;;19.30;99.90;;;;;;5079587;28;20082;-65
2022/06/25 07:14:06;;;;;;;2.70;1.70;;;19.20;99.90;;;;;;5086700;28;20082;-65
2022/06/25 07:16:34;;;;;;;4.43;2.33;;;19.20;99.90;;;;;;5075294;28;20037;-65
2022/06/25 07:19:00;;;;;;;4.13;1.83;;;19.10;99.90;;;;;;5089990;28;20053;-64
2022/06/25 07:21:27;;;;;;;2.38;1.80;;;19.10;99.90;;;;;;5089662;28;20040;-65
2022/06/25 07:23:53;;;;;;;3.88;1.80;;;19.00;99.90;;;;;;5087044;28;20056;-65
2022/06/25 07:26:22;;;;;;;3.75;2.08;;;19.10;99.90;;;;;;5087660;28;20093;-65
2022/06/25 07:28:48;;;;;;;4.18;1.73;;;19.20;99.90;;;;;;5086504;28;20047;-65
2022/06/25 07:31:14;;;;;;;3.30;1.73;;;19.50;99.90;;;;;;5069630;28;20040;-65
2022/06/25 07:33:40;;;;;;;3.58;2.03;;;19.60;99.90;;;;;;5075330;28;20023;-65
2022/06/25 07:36:07;;;;;;;6.65;1.90;;;19.70;99.90;;;;;;5089782;28;20039;-65
2022/06/25 07:38:33;;;;;;;3.50;2.03;;;19.70;99.90;;;;;;5085829;28;20020;-66
2022/06/25 07:40:59;;;;;;;4.30;2.00;;;19.90;99.90;;;;;;5088632;28;20120;-66
2022/06/25 07:43:27;;;;;;;2.53;1.85;;;20.00;99.90;;;;;;5090517;28;20475;-67
2022/06/25 07:45:56;;;;;;;7.88;2.13;;;20.10;99.90;;;;;;5089631;28;20032;-66
2022/06/25 07:48:21;;;;;;;7.35;1.70;;;20.20;99.90;;;;;;5086483;28;20028;-66
2022/06/25 07:53:31;;;;;;;2.95;2.17;;;20.60;99.90;;;;;;5088546;28;20043;-66
2022/06/25 07:55:57;;;;;;;5.45;2.20;;;20.70;99.90;;;;;;5087187;28;20024;-66
2022/06/25 07:58:26;;;;;;;9.48;2.45;;;20.80;99.90;;;;;;5068973;28;20039;-66
2022/06/25 08:00:52;;;;;;;4.55;2.08;;;20.90;99.90;;;;;;5068691;28;20040;-66
2022/06/25 08:03:18;;;;;;;3.53;2.35;;;21.00;99.90;;;;;;5087385;28;20041;-67
2022/06/25 08:05:46;;;;;;;5.30;2.22;;;21.00;99.90;;;;;;5087300;28;20650;-67
2022/06/25 08:08:12;;;;;;;3.67;2.10;;;21.10;99.90;;;;;;5069933;28;20028;-67
2022/06/25 08:10:38;;;;;;;4.35;2.08;;;21.30;99.90;;;;;;5084720;28;20034;-66
2022/06/25 08:13:04;;;;;;;8.45;2.70;;;21.50;99.90;;;;;;5087885;28;20024;-66
2022/06/25 08:15:30;;;;;;;3.40;2.45;;;21.50;99.90;;;;;;5083040;28;20555;-66
2022/06/25 08:17:55;;;;;;;4.35;2.33;;;21.30;99.90;;;;;;5089214;28;20016;-66
2022/06/25 08:20:21;;;;;;;5.50;2.40;;;21.20;99.90;;;;;;5090143;28;20036;-67
2022/06/25 08:22:46;;;;;;;4.75;2.20;;;21.30;99.90;;;;;;5088269;28;20511;-67
2022/06/25 08:25:12;;;;;;;3.03;2.30;;;21.40;99.90;;;;;;5070298;28;20086;-65
2022/06/25 08:27:51;;;;;;;6.03;2.70;;;21.80;99.90;;;;;;5074151;28;20032;-66
2022/06/25 08:30:21;;;;;;;3.97;2.70;;;21.80;99.90;;;;;;5086882;28;20064;-67
2022/06/25 08:32:47;;;;;;;4.70;2.38;;;21.90;99.90;;;;;;5086370;28;20076;-66
2022/06/25 08:35:14;;;;;;;4.95;2.47;;;21.90;99.90;;;;;;5070659;28;20424;-66
2022/06/25 08:37:47;;;;;;;5.43;2.60;;;21.80;99.90;;;;;;5081680;28;20059;-66
2022/06/25 08:40:14;;;;;;;5.45;2.55;;;21.70;99.90;;;;;;5090036;28;20027;-67
2022/06/25 08:42:39;;;;;;;4.13;2.20;;;21.70;99.90;;;;;;5080507;28;20115;-67
2022/06/25 08:45:06;;;;;;;5.80;2.55;;;21.90;99.90;;;;;;5085913;28;20110;-66
2022/06/25 08:47:32;;;;;;;4.97;2.58;;;21.90;99.90;;;;;;5080061;28;20068;-66
2022/06/25 08:50:02;;;;;;;4.72;2.53;;;22.00;99.90;;;;;;5094724;28;20028;-65
2022/06/25 08:58:01;;;;;;;4.07;2.30;;;23.00;99.90;;;;;;4971334;23;20052;-67
2022/06/25 09:00:28;;;;;;;3.55;2.10;;;23.30;99.90;;;;;;4910387;29;20504;-67
2022/06/25 09:02:55;;;;;;;9.48;2.45;;;23.40;99.90;;;;;;4912566;29;20524;-67
2022/06/25 09:05:28;;;;;;;3.33;2.20;;;23.20;99.90;;;;;;4912708;29;20036;-66
2022/06/25 09:09:15;;;;;;;11.18;2.20;;;23.20;99.90;;;;;;5006832;22;20229;-66
2022/06/25 09:11:54;;;;;;;3.20;2.47;;;23.10;99.90;;;;;;5010375;28;20625;-65
2022/06/25 09:14:24;;;;;;;4.03;2.37;;;23.00;99.90;;;;;;5023369;28;20029;-65
2022/06/25 09:17:04;;;;;;;3.50;2.30;;;23.20;99.90;;;;;;5108407;28;20043;-67
2022/06/25 09:19:34;;;;;;;3.20;1.90;;;23.30;99.90;;;;;;5021059;28;20049;-66
2022/06/25 09:22:02;;;;;;;3.08;2.03;;;23.30;99.90;;;;;;5022434;28;20025;-66
2022/06/25 09:24:43;;;;;;;5.88;2.30;;;23.30;99.90;;;;;;5024646;28;20045;-66
2022/06/25 09:27:09;;;;;;;9.73;2.03;;;23.30;99.90;;;;;;5029414;28;20041;-67
2022/06/25 09:29:44;;;;;;;3.05;2.10;;;23.20;99.90;;;;;;5022134;28;20044;-66
2022/06/25 09:32:11;;;;;;;3.28;2.20;;;23.30;99.90;;;;;;5021309;28;20030;-66
2022/06/25 09:34:38;;;;;;;4.45;2.50;;;23.30;99.90;;;;;;5022792;28;20087;-67
2022/06/25 09:37:25;;;;;;;11.73;2.58;;;23.50;99.90;;;;;;5021345;28;20050;-68
2022/06/25 09:39:53;;;;;;;11.68;2.97;;;23.60;99.90;;;;;;5024505;28;20437;-67
2022/06/25 09:42:20;;;;;;;4.15;2.50;;;23.20;99.90;;;;;;5059414;28;20035;-66
2022/06/25 09:44:47;;;;;;;6.07;2.40;;;22.90;99.90;;;;;;5027027;28;20114;-65
2022/06/25 09:47:15;;;;;;;3.67;2.28;;;23.00;99.90;;;;;;5021289;28;20112;-66
2022/06/25 09:49:41;;;;;;;4.43;2.20;;;23.20;99.90;;;;;;5024241;28;20029;-67
2022/06/25 09:52:07;;;;;;;2.42;2.22;;;23.50;99.90;;;;;;5045850;28;20351;-66
2022/06/25 09:54:33;;;;;;;4.32;2.25;;;23.60;99.90;;;;;;5126595;28;20027;-66
2022/06/25 09:57:00;;;;;;;3.75;2.38;;;23.60;99.90;;;;;;5071430;28;20071;-66
2022/06/25 09:59:33;;;;;;;2.90;2.22;;;23.80;99.90;;;;;;5021767;28;20120;-65
2022/06/25 10:02:01;;;;;;;3.35;2.13;;;23.60;99.90;;;;;;5044496;28;20028;-65
2022/06/25 10:04:30;;;;;;;6.22;2.38;;;23.30;99.90;;;;;;5067482;28;20041;-65
2022/06/25 10:06:58;;;;;;;2.55;2.20;;;23.20;99.90;;;;;;5021353;28;20553;-67
2022/06/25 10:09:26;;;;;;;5.18;2.28;;;23.10;99.90;;;;;;5020744;28;20013;-66
2022/06/25 10:11:52;;;;;;;4.57;2.33;;;23.00;99.90;;;;;;5019174;28;20041;-67
2022/06/25 10:14:18;;;;;;;3.85;1.88;;;23.20;99.90;;;;;;5020343;28;20452;-67
2022/06/25 10:16:44;;;;;;;6.45;2.30;;;23.20;99.90;;;;;;5040867;28;20041;-66
2022/06/25 10:19:14;;;;;;;3.80;1.85;;;23.10;99.90;;;;;;5019997;28;20026;-66
2022/06/25 10:21:40;;;;;;;2.10;1.73;;;23.10;99.90;;;;;;5008724;28;20104;-67
2022/06/25 10:24:07;;;;;;;2.50;2.00;;;23.40;99.90;;;;;;5027583;28;20122;-67
2022/06/25 10:26:34;;;;;;;5.15;2.30;;;24.00;99.90;;;;;;5008342;28;20049;-66
2022/06/25 10:29:22;;;;;;;3.13;2.10;;;24.40;99.90;;;;;;5008648;28;20431;-67
2022/06/25 10:31:48;;;;;;;2.50;2.00;;;24.50;99.90;;;;;;5012753;28;20963;-65
2022/06/25 10:34:14;;;;;;;2.78;2.20;;;24.60;99.90;;;;;;5110957;28;20115;-66
2022/06/25 10:36:40;;;;;;;8.88;2.05;;;25.00;99.90;;;;;;5018596;28;20036;-66
2022/06/25 10:39:25;;;;;;;5.40;2.40;;;25.40;99.90;;;;;;5041200;28;20154;-66
2022/06/25 10:45:14;;;;;;;10.07;2.03;;;25.20;99.90;;;;;;5011611;28;20037;-66
2022/06/25 10:48:10;;;;;;;4.80;1.83;;;25.60;99.90;;;;;;5005829;28;20049;-66
2022/06/25 10:50:36;;;;;;;2.80;1.90;;;25.60;99.90;;;;;;5003032;28;20034;-66
2022/06/25 10:53:02;;;;;;;4.32;2.08;;;25.70;97.50;;;;;;5006108;28;21577;-66
2022/06/25 10:55:37;;;;;;;5.65;1.98;;;26.00;99.90;;;;;;5007657;28;20064;-65
2022/06/25 10:58:15;;;;;;;5.32;1.98;;;26.20;97.70;;;;;;5010035;28;20120;-66
2022/06/25 11:00:55;;;;;;;4.40;2.10;;;26.40;96.30;;;;;;4998145;28;20034;-65
2022/06/25 11:03:27;;;;;;;3.95;1.83;;;26.20;94.90;;;;;;4995854;28;20391;-66
2022/06/25 11:05:53;;;;;;;3.05;2.03;;;26.40;96.90;;;;;;5007417;28;20473;-66
2022/06/25 11:08:19;;;;;;;4.13;1.77;;;26.80;95.20;;;;;;5045350;28;20056;-66
2022/06/25 11:10:44;;;;;;;4.97;1.80;;;27.20;97.20;;;;;;5014637;28;20045;-66
2022/06/25 11:13:10;;;;;;;5.45;2.08;;;27.60;93.80;;;;;;5007653;28;20013;-67
2022/06/25 11:15:44;;;;;;;3.47;1.70;;;27.70;90.00;;;;;;5007127;28;20030;-66
2022/06/25 11:18:12;;;;;;;2.42;1.90;;;27.40;90.50;;;;;;5074164;28;20018;-67
2022/06/25 11:20:39;;;;;;;2.50;1.90;;;27.50;92.20;;;;;;5022731;28;20117;-66
2022/06/25 11:23:09;;;;;;;3.05;1.90;;;27.20;90.80;;;;;;5004657;28;20030;-66
2022/06/25 11:28:48;;;;;;;2.72;2.00;;;27.20;92.80;;;;;;4999637;28;20040;-65
2022/06/25 11:31:19;;;;;;;4.18;1.90;;;27.00;92.10;;;;;;5003953;28;20038;-66
2022/06/25 11:33:45;;;;;;;2.70;2.10;;;26.40;92.20;;;;;;5065886;28;20106;-65
2022/06/25 11:36:11;;;;;;;2.55;1.67;;;26.20;93.20;;;;;;5036266;28;20485;-66
2022/06/25 11:38:39;;;;;;;2.95;2.00;;;26.40;91.70;;;;;;5074893;28;20120;-66
2022/06/25 11:41:05;;;;;;;2.28;1.88;;;26.80;93.30;;;;;;5027424;28;20134;-66
2022/06/25 11:43:31;;;;;;;2.10;1.70;;;27.00;93.00;;;;;;5063457;28;20469;-66
2022/06/25 11:45:58;;;;;;;3.15;1.50;;;27.00;93.30;;;;;;5093378;28;20028;-66
2022/06/25 11:48:29;;;;;;;3.22;1.67;;;27.40;92.50;;;;;;5005953;28;20358;-65
2022/06/25 11:51:03;;;;;;;3.42;1.75;;;27.70;92.40;;;;;;5061123;28;20029;-65
2022/06/25 11:53:29;;;;;;;1.90;1.65;;;27.70;92.00;;;;;;5032057;28;20143;-65
2022/06/25 11:56:02;;;;;;;6.80;2.25;;;27.60;89.50;;;;;;5023178;28;20097;-65
2022/06/25 11:58:31;;;;;;;4.07;1.90;;;27.20;90.20;;;;;;5058715;28;20031;-65
2022/06/25 12:01:04;;;;;;;3.55;1.92;;;26.90;91.50;;;;;;5017458;28;20045;-65
2022/06/25 12:03:32;;;;;;;4.18;1.83;;;26.80;88.30;;;;;;5021367;28;20042;-66
2022/06/25 12:06:00;;;;;;;2.15;1.75;;;26.80;90.70;;;;;;5017180;28;20063;-65
2022/06/25 12:08:26;;;;;;;3.72;1.80;;;27.00;91.10;;;;;;5005771;28;20058;-66
2022/06/25 12:10:57;;;;;;;4.65;1.92;;;27.10;85.60;;;;;;5005599;28;20458;-65
2022/06/25 12:13:26;;;;;;;3.45;1.70;;;26.90;84.20;;;;;;5035310;28;20037;-66
2022/06/25 12:16:00;;;;;;;5.18;1.60;;;26.60;88.70;;;;;;5023227;28;20038;-65
2022/06/25 12:18:37;;;;;;;2.95;1.52;;;27.00;91.00;;;;;;5006205;28;20594;-65
2022/06/25 12:21:04;;;;;;;3.13;1.85;;;27.30;89.30;;;;;;5006163;28;20034;-64
2022/06/25 12:23:30;;;;;;;2.92;1.50;;;27.60;88.60;;;;;;5008078;28;20146;-67
2022/06/25 12:25:56;;;;;;;2.58;1.75;;;27.70;78.60;;;;;;5027641;28;20051;-68
2022/06/25 12:28:35;;;;;;;3.70;1.75;;;28.00;83.80;;;;;;5005351;28;20608;-66
2022/06/25 12:31:11;;;;;;;5.83;1.60;;;28.20;80.60;;;;;;4994397;28;20030;-67
2022/06/25 12:33:37;;;;;;;2.65;1.80;;;28.10;80.00;;;;;;5073142;28;20034;-65
2022/06/25 12:36:17;;;;;;;3.35;1.77;;;27.20;75.70;;;;;;5042597;28;20033;-66
2022/06/25 12:38:42;;;;;;;3.15;1.85;;;27.10;82.20;;;;;;4995699;28;20056;-66
2022/06/25 12:41:11;;;;;;;2.25;1.77;;;27.10;78.10;;;;;;5001030;28;20563;-66
2022/06/25 12:43:48;;;;;;;3.50;1.80;;;27.40;78.60;;;;;;5006387;28;20038;-66
2022/06/25 12:46:17;;;;;;;2.67;1.50;;;27.50;76.20;;;;;;5004923;28;20058;-67
2022/06/25 12:48:43;;;;;;;2.70;1.90;;;27.60;76.10;;;;;;5006417;28;20035;-67
2022/06/25 12:51:10;;;;;;;1.92;1.40;;;28.00;74.30;;;;;;4997061;28;20034;-66
2022/06/25 12:53:37;;;;;;;2.58;1.85;;;28.30;76.90;;;;;;5007831;28;20094;-66
2022/06/25 12:56:03;;;;;;;2.90;1.63;;;28.10;73.50;;;;;;5012552;28;20037;-67
2022/06/25 12:58:36;;;;;;;1.88;1.50;;;27.80;75.50;;;;;;5005475;28;20071;-66
2022/06/25 13:01:20;;;;;;;2.60;1.70;;;28.00;77.30;;;;;;5006393;28;20469;-66
2022/06/25 13:03:46;;;;;;;1.98;1.50;;;28.30;77.20;;;;;;5006379;28;20058;-67
2022/06/25 13:06:12;;;;;;;4.00;2.10;;;28.50;82.60;;;;;;5005409;28;20062;-66
2022/06/25 13:08:38;;;;;;;2.67;1.48;;;28.50;77.90;;;;;;5005462;28;20064;-66